createdAt,value
2023-05-22T00:00:04.186Z,47.35
2023-05-22T00:02:30.847Z,47.49
2023-05-22T00:04:59.079Z,47.32
2023-05-22T00:07:25.659Z,47.10
2023-05-22T00:09:52.234Z,47.14
2023-05-22T00:12:18.793Z,47.79
2023-05-22T00:14:45.478Z,47.34
2023-05-22T00:17:12.079Z,47.79
2023-05-22T00:19:38.747Z,47.72
2023-05-22T00:22:06.868Z,47.86
2023-05-22T00:24:33.430Z,47.57
2023-05-22T00:27:00.065Z,47.42
2023-05-22T00:29:26.769Z,47.69
2023-05-22T00:31:53.344Z,47.48
2023-05-22T00:34:20.023Z,47.79
2023-05-22T00:36:46.777Z,47.47
2023-05-22T00:39:14.720Z,47.29
2023-05-22T00:41:41.330Z,47.32
2023-05-22T00:44:08.009Z,47.23
2023-05-22T00:46:35.038Z,47.27
2023-05-22T00:49:01.741Z,47.69
2023-05-22T00:51:28.453Z,47.52
2023-05-22T00:53:55.571Z,47.65
2023-05-22T00:56:24.187Z,47.44
2023-05-22T00:58:50.889Z,47.90
2023-05-22T01:01:17.628Z,47.48
2023-05-22T01:03:45.673Z,47.97
2023-05-22T01:06:13.414Z,47.66
2023-05-22T01:08:40.739Z,47.92
2023-05-22T01:11:14.463Z,47.81
2023-05-22T01:13:51.671Z,47.53
2023-05-22T01:16:24.835Z,47.83
2023-05-22T01:18:59.180Z,47.63
2023-05-22T01:21:35.682Z,47.85
2023-05-22T01:24:32.986Z,48.00
2023-05-22T01:27:29.566Z,47.58
2023-05-22T01:30:12.525Z,47.72
2023-05-22T01:32:43.057Z,47.81
2023-05-22T01:35:11.211Z,48.23
2023-05-22T01:37:38.924Z,48.11
2023-05-22T01:40:07.482Z,47.74
2023-05-22T01:42:34.836Z,48.16
2023-05-22T01:45:01.510Z,48.43
2023-05-22T01:47:28.203Z,48.42
2023-05-22T01:49:56.160Z,48.56
2023-05-22T01:52:30.911Z,48.75
2023-05-22T01:55:00.693Z,48.47
2023-05-22T01:57:32.438Z,49.00
2023-05-22T02:00:06.641Z,49.07
2023-05-22T02:02:36.376Z,49.51
2023-05-22T02:05:06.220Z,49.75
2023-05-22T02:07:36.528Z,49.84
2023-05-22T02:10:04.432Z,50.45
2023-05-22T02:12:31.316Z,50.35
2023-05-22T02:14:58.044Z,50.51
2023-05-22T02:17:24.664Z,50.84
2023-05-22T02:19:51.278Z,50.98
2023-05-22T02:22:19.212Z,51.00
2023-05-22T02:24:48.362Z,51.42
2023-05-22T02:27:14.931Z,51.57
2023-05-22T02:29:41.636Z,51.44
2023-05-22T02:32:08.401Z,51.99
2023-05-22T02:34:34.960Z,52.24
2023-05-22T02:37:01.687Z,52.36
2023-05-22T02:39:29.734Z,52.26
2023-05-22T02:41:56.311Z,52.46
2023-05-22T02:44:22.911Z,52.34
2023-05-22T02:46:49.569Z,52.56
2023-05-22T02:49:16.170Z,52.83
2023-05-22T02:51:42.719Z,52.80
2023-05-22T02:54:09.275Z,52.81
2023-05-22T02:56:37.191Z,52.72
2023-05-22T02:59:03.731Z,53.02
2023-05-22T03:01:30.348Z,53.28
2023-05-22T03:03:57.096Z,53.12
2023-05-22T03:06:23.806Z,52.90
2023-05-22T03:08:50.365Z,52.60
2023-05-22T03:11:16.953Z,52.83
2023-05-22T03:13:45.035Z,52.75
2023-05-22T03:16:11.656Z,52.98
2023-05-22T03:18:38.269Z,52.71
2023-05-22T03:21:05.210Z,52.84
2023-05-22T03:23:32.079Z,52.62
2023-05-22T03:25:58.685Z,52.64
2023-05-22T03:28:25.382Z,52.81
2023-05-22T03:30:53.411Z,52.89
2023-05-22T03:33:20.022Z,52.73
2023-05-22T03:35:46.645Z,52.65
2023-05-22T03:38:13.430Z,52.80
2023-05-22T03:40:40.196Z,52.56
2023-05-22T03:43:06.979Z,52.67
2023-05-22T03:45:33.726Z,52.61
2023-05-22T03:48:02.004Z,52.40
2023-05-22T03:50:28.632Z,52.28
2023-05-22T03:52:55.262Z,52.85
2023-05-22T03:55:21.830Z,52.53
2023-05-22T03:57:48.413Z,52.39
2023-05-22T04:00:15.979Z,51.72
2023-05-22T04:02:42.681Z,51.47
2023-05-22T04:05:10.791Z,51.50
2023-05-22T04:07:37.441Z,50.92
2023-05-22T04:10:04.542Z,49.77
2023-05-22T04:12:31.211Z,49.43
2023-05-22T04:14:57.812Z,48.29
2023-05-22T04:17:26.176Z,48.16
2023-05-22T04:19:52.758Z,46.43
2023-05-22T04:22:20.746Z,47.15
2023-05-22T04:24:47.347Z,47.31
2023-05-22T04:27:14.029Z,47.17
2023-05-22T04:29:40.626Z,47.88
2023-05-22T04:32:07.817Z,48.98
2023-05-22T04:34:34.405Z,48.42
2023-05-22T04:37:00.952Z,49.45
2023-05-22T04:39:28.955Z,49.42
2023-05-22T04:41:55.586Z,49.54
2023-05-22T04:44:22.189Z,49.49
2023-05-22T04:46:49.106Z,50.06
2023-05-22T04:49:15.773Z,49.82
2023-05-22T04:51:42.372Z,50.47
2023-05-22T04:54:08.947Z,50.16
2023-05-22T04:56:37.508Z,50.06
2023-05-22T04:59:04.358Z,50.21
2023-05-22T05:01:33.083Z,50.45
2023-05-22T05:04:00.710Z,50.67
2023-05-22T05:06:27.510Z,50.51
2023-05-22T05:08:54.137Z,50.72
2023-05-22T05:11:20.773Z,50.57
2023-05-22T05:13:48.725Z,50.99
2023-05-22T05:16:15.371Z,51.23
2023-05-22T05:18:42.038Z,50.55
2023-05-22T05:21:09.090Z,51.31
2023-05-22T05:23:35.639Z,51.20
2023-05-22T05:26:02.280Z,50.99
2023-05-22T05:28:29.153Z,51.45
2023-05-22T05:30:57.087Z,50.65
2023-05-22T05:33:23.678Z,50.82
2023-05-22T05:35:50.259Z,51.15
2023-05-22T05:38:16.867Z,50.49
2023-05-22T05:40:43.493Z,51.15
2023-05-22T05:43:10.328Z,49.71
2023-05-22T05:45:37.040Z,50.38
2023-05-22T05:48:08.213Z,49.50
2023-05-22T05:50:35.053Z,50.77
2023-05-22T05:53:01.878Z,48.91
2023-05-22T05:55:28.427Z,49.09
2023-05-22T05:57:55.125Z,49.36
2023-05-22T06:00:21.762Z,49.47
2023-05-22T06:02:50.518Z,49.08
2023-05-22T06:05:18.936Z,49.43
2023-05-22T06:07:45.681Z,49.54
2023-05-22T06:10:13.048Z,48.78
2023-05-22T06:12:39.911Z,49.82
2023-05-22T06:15:07.519Z,49.70
2023-05-22T06:17:34.312Z,49.55
2023-05-22T06:20:01.178Z,49.40
2023-05-22T06:22:29.309Z,49.51
2023-05-22T06:24:55.950Z,48.60
2023-05-22T06:27:23.204Z,49.31
2023-05-22T06:29:50.359Z,49.28
2023-05-22T06:32:17.355Z,49.01
2023-05-22T06:34:47.290Z,49.42
2023-05-22T06:37:13.915Z,48.59
2023-05-22T06:39:41.891Z,48.76
2023-05-22T06:42:08.529Z,49.54
2023-05-22T06:44:35.125Z,48.87
2023-05-22T06:47:01.848Z,49.58
2023-05-22T06:49:28.428Z,48.44
2023-05-22T06:51:55.130Z,48.84
2023-05-22T06:54:21.754Z,48.99
2023-05-22T06:56:49.722Z,48.02
2023-05-22T06:59:16.331Z,48.84
2023-05-22T07:01:42.917Z,48.78
2023-05-22T07:04:09.774Z,48.60
2023-05-22T07:06:36.365Z,47.47
2023-05-22T07:09:03.067Z,47.70
2023-05-22T07:11:29.695Z,48.70
2023-05-22T07:13:57.745Z,48.63
2023-05-22T07:16:25.640Z,47.91
2023-05-22T07:18:52.280Z,48.50
2023-05-22T07:21:18.976Z,48.11
2023-05-22T07:23:45.542Z,48.19
2023-05-22T07:26:12.369Z,48.11
2023-05-22T07:28:38.982Z,48.74
2023-05-22T07:31:07.016Z,48.83
2023-05-22T07:33:33.676Z,47.81
2023-05-22T07:36:00.269Z,47.64
2023-05-22T07:38:26.909Z,47.54
2023-05-22T07:40:53.467Z,48.21
2023-05-22T07:43:20.041Z,47.95
2023-05-22T07:45:46.640Z,47.91
2023-05-22T07:48:14.703Z,47.61
2023-05-22T07:50:41.284Z,48.00
2023-05-22T07:53:07.971Z,47.36
2023-05-22T07:55:34.521Z,46.84
2023-05-22T07:58:01.106Z,47.66
2023-05-22T08:00:27.689Z,47.28
2023-05-22T08:02:54.585Z,45.85
2023-05-22T08:05:22.738Z,45.90
2023-05-22T08:07:49.453Z,46.65
2023-05-22T08:10:17.738Z,45.83
2023-05-22T08:12:44.709Z,45.05
2023-05-22T08:15:11.857Z,45.67
2023-05-22T08:17:38.902Z,46.56
2023-05-22T08:20:07.312Z,45.76
2023-05-22T08:22:35.494Z,45.80
2023-05-22T08:25:03.669Z,45.68
2023-05-22T08:27:30.403Z,46.09
2023-05-22T08:29:56.985Z,45.85
2023-05-22T08:32:23.595Z,45.04
2023-05-22T08:34:50.283Z,46.23
2023-05-22T08:37:17.087Z,45.48
2023-05-22T08:39:45.169Z,45.03
2023-05-22T08:42:11.806Z,45.54
2023-05-22T08:44:39.149Z,45.82
2023-05-22T08:47:07.124Z,45.25
2023-05-22T08:49:34.130Z,44.99
2023-05-22T08:52:07.727Z,44.88
2023-05-22T08:54:36.762Z,45.08
2023-05-22T08:57:05.846Z,43.93
2023-05-22T08:59:34.469Z,42.59
2023-05-22T09:02:01.990Z,44.19
2023-05-22T09:04:29.460Z,44.34
2023-05-22T09:06:56.109Z,43.05
2023-05-22T09:09:22.959Z,42.58
2023-05-22T09:11:49.752Z,42.01
2023-05-22T09:14:18.697Z,41.72
2023-05-22T09:16:46.217Z,42.46
2023-05-22T09:19:13.309Z,42.88
2023-05-22T09:21:39.997Z,43.36
2023-05-22T09:24:08.095Z,42.05
2023-05-22T09:26:34.739Z,42.04
2023-05-22T09:29:01.688Z,42.75
2023-05-22T09:31:29.984Z,42.86
2023-05-22T09:33:57.841Z,41.73
2023-05-22T09:36:31.151Z,42.38
2023-05-22T09:38:59.558Z,41.77
2023-05-22T09:41:26.187Z,41.69
2023-05-22T09:43:52.851Z,41.87
2023-05-22T09:46:19.506Z,42.73
2023-05-22T09:48:51.429Z,41.63
2023-05-22T09:51:19.378Z,42.73
2023-05-22T09:53:48.751Z,43.05
2023-05-22T09:56:24.239Z,43.29
2023-05-22T09:58:54.270Z,42.74
2023-05-22T10:01:22.383Z,40.97
2023-05-22T10:03:54.266Z,42.67
2023-05-22T10:06:22.467Z,42.07
2023-05-22T10:08:54.346Z,41.63
2023-05-22T10:11:21.966Z,41.72
2023-05-22T10:13:49.860Z,42.75
2023-05-22T10:16:16.848Z,42.90
2023-05-22T10:18:45.983Z,42.47
2023-05-22T10:21:17.314Z,42.03
2023-05-22T10:23:44.249Z,40.78
2023-05-22T10:26:11.355Z,41.67
2023-05-22T10:28:42.640Z,41.18
2023-05-22T10:31:19.190Z,41.06
2023-05-22T10:33:51.458Z,40.58
2023-05-22T10:36:37.122Z,40.47
2023-05-22T10:39:16.362Z,40.17
2023-05-22T10:41:42.995Z,40.84
2023-05-22T10:44:09.887Z,40.39
2023-05-22T10:46:36.636Z,41.61
2023-05-22T10:49:03.648Z,40.94
2023-05-22T10:51:32.765Z,39.30
2023-05-22T10:54:00.627Z,38.89
2023-05-22T10:56:39.014Z,39.31
2023-05-22T10:59:15.323Z,39.59
2023-05-22T11:02:00.340Z,40.47
2023-05-22T11:04:27.056Z,39.00
2023-05-22T11:07:04.570Z,39.63
2023-05-22T11:09:35.364Z,39.01
2023-05-22T11:12:19.103Z,37.66
2023-05-22T11:14:55.418Z,38.97
2023-05-22T11:17:23.615Z,37.78
2023-05-22T11:20:07.269Z,37.81
2023-05-22T11:22:38.720Z,38.11
2023-05-22T11:25:08.678Z,38.71
2023-05-22T11:27:36.183Z,40.13
2023-05-22T11:30:04.136Z,38.39
2023-05-22T11:32:35.137Z,37.49
2023-05-22T11:35:02.207Z,37.26
2023-05-22T11:37:29.191Z,36.90
2023-05-22T11:40:02.448Z,35.99
2023-05-22T11:42:30.248Z,37.54
2023-05-22T11:44:59.960Z,36.82
2023-05-22T11:47:37.186Z,38.84
2023-05-22T11:50:07.788Z,37.09
2023-05-22T11:52:38.161Z,36.42
2023-05-22T11:55:07.795Z,35.91
2023-05-22T11:57:35.457Z,36.61
2023-05-22T12:00:13.350Z,34.90
2023-05-22T12:02:45.517Z,34.79
2023-05-22T12:05:13.072Z,34.97
2023-05-22T12:07:39.982Z,37.01
2023-05-22T12:10:14.655Z,35.42
2023-05-22T12:12:43.250Z,35.45
2023-05-22T12:15:10.581Z,34.08
2023-05-22T12:17:38.015Z,34.11
2023-05-22T12:20:05.455Z,35.74
2023-05-22T12:22:32.481Z,36.26
2023-05-22T12:24:59.515Z,34.49
2023-05-22T12:27:31.638Z,34.78
2023-05-22T12:29:59.495Z,34.38
2023-05-22T12:32:29.656Z,33.38
2023-05-22T12:37:48.327Z,33.97
2023-05-22T12:40:15.088Z,33.37
2023-05-22T12:42:43.255Z,34.55
2023-05-22T12:45:11.246Z,33.78
2023-05-22T12:47:37.998Z,33.05
2023-05-22T12:50:06.263Z,31.31
2023-05-22T12:52:32.840Z,32.19
2023-05-22T12:54:59.412Z,31.63
2023-05-22T12:57:26.068Z,31.10
2023-05-22T12:59:54.073Z,31.72
2023-05-22T13:02:20.738Z,31.35
2023-05-22T13:04:47.458Z,29.95
2023-05-22T13:07:16.932Z,30.94
2023-05-22T13:09:46.227Z,31.35
2023-05-22T13:12:15.265Z,30.59
2023-05-22T13:14:44.572Z,30.66
2023-05-22T13:17:12.650Z,31.21
2023-05-22T13:19:44.503Z,31.99
2023-05-22T13:22:11.189Z,31.90
2023-05-22T13:24:38.283Z,31.07
2023-05-22T13:27:05.260Z,31.60
2023-05-22T13:29:32.451Z,30.46
2023-05-22T13:31:59.314Z,29.34
2023-05-22T13:34:28.658Z,29.82
2023-05-22T13:36:55.492Z,30.46
2023-05-22T13:39:22.329Z,29.20
2023-05-22T13:41:49.051Z,30.18
2023-05-22T13:44:15.672Z,31.71
2023-05-22T13:46:42.677Z,29.44
2023-05-22T13:49:09.489Z,29.47
2023-05-22T13:51:37.484Z,30.72
2023-05-22T13:54:04.957Z,30.37
2023-05-22T13:56:34.709Z,29.55
2023-05-22T13:59:09.188Z,29.45
2023-05-22T14:01:36.308Z,28.00
2023-05-22T14:04:03.275Z,28.66
2023-05-22T14:06:33.161Z,28.86
2023-05-22T14:09:02.566Z,29.39
2023-05-22T14:11:29.234Z,30.26
2023-05-22T14:13:55.845Z,29.24
2023-05-22T14:16:29.013Z,30.13
2023-05-22T14:18:55.722Z,28.56
2023-05-22T14:21:22.431Z,28.08
2023-05-22T14:23:48.966Z,27.39
2023-05-22T14:26:17.018Z,27.70
2023-05-22T14:28:43.800Z,28.17
2023-05-22T14:31:10.497Z,28.87
2023-05-22T14:33:37.160Z,28.98
2023-05-22T14:36:04.133Z,29.27
2023-05-22T14:38:32.208Z,29.21
2023-05-22T14:40:58.862Z,27.42
2023-05-22T14:43:27.086Z,28.28
2023-05-22T14:45:54.545Z,27.91
2023-05-22T14:48:21.174Z,27.10
2023-05-22T14:50:47.869Z,26.66
2023-05-22T14:53:14.652Z,27.36
2023-05-22T14:55:41.634Z,28.66
2023-05-22T14:58:08.368Z,28.50
2023-05-22T15:00:36.345Z,28.36
2023-05-22T15:03:03.597Z,27.79
2023-05-22T15:05:30.403Z,26.47
2023-05-22T15:07:57.229Z,29.09
2023-05-22T15:10:24.090Z,28.47
2023-05-22T15:12:50.780Z,28.03
2023-05-22T15:15:17.708Z,28.01
2023-05-22T15:17:45.861Z,27.68
2023-05-22T15:20:12.941Z,27.26
2023-05-22T15:22:39.714Z,26.39
2023-05-22T15:25:08.395Z,27.91
2023-05-22T15:27:35.743Z,26.98
2023-05-22T15:30:03.365Z,28.31
2023-05-22T15:32:31.973Z,26.88
2023-05-22T15:34:59.966Z,27.74
2023-05-22T15:37:26.983Z,27.49
2023-05-22T15:39:53.595Z,27.33
2023-05-22T15:42:20.254Z,28.71
2023-05-22T15:44:46.841Z,27.75
2023-05-22T15:47:13.486Z,28.31
2023-05-22T15:49:40.214Z,27.47
2023-05-22T15:52:08.218Z,27.63
2023-05-22T15:54:34.786Z,27.30
2023-05-22T15:57:01.366Z,27.73
2023-05-22T15:59:27.902Z,26.81
2023-05-22T16:01:54.651Z,27.74
2023-05-22T16:04:21.271Z,27.05
2023-05-22T16:06:47.858Z,27.59
2023-05-22T16:09:16.050Z,27.36
2023-05-22T16:11:42.632Z,27.26
2023-05-22T16:14:09.325Z,27.48
2023-05-22T16:16:35.948Z,28.38
2023-05-22T16:19:02.628Z,28.38
2023-05-22T16:21:29.226Z,27.59
2023-05-22T16:23:55.840Z,28.26
2023-05-22T16:26:23.817Z,28.11
2023-05-22T16:28:50.399Z,27.29
2023-05-22T16:31:18.980Z,27.56
2023-05-22T16:33:45.892Z,27.37
2023-05-22T16:36:12.494Z,28.10
2023-05-22T16:38:39.148Z,28.50
2023-05-22T16:41:05.786Z,28.83
2023-05-22T16:43:33.798Z,29.10
2023-05-22T16:46:00.368Z,29.11
2023-05-22T16:48:27.052Z,29.06
2023-05-22T16:50:53.635Z,28.24
2023-05-22T16:53:20.280Z,28.48
2023-05-22T16:55:46.922Z,27.92
2023-05-22T16:58:13.532Z,29.47
2023-05-22T17:00:41.853Z,28.44
2023-05-22T17:03:09.334Z,28.64
2023-05-22T17:05:37.345Z,28.81
2023-05-22T17:08:04.232Z,29.13
2023-05-22T17:10:30.820Z,28.84
2023-05-22T17:12:57.501Z,29.30
2023-05-22T17:15:24.081Z,29.22
2023-05-22T17:17:52.276Z,29.89
2023-05-22T17:20:20.695Z,32.17
2023-05-22T17:22:47.242Z,29.56
2023-05-22T17:25:14.006Z,30.46
2023-05-22T17:27:40.741Z,30.60
2023-05-22T17:30:08.332Z,31.03
2023-05-22T17:32:35.131Z,31.45
2023-05-22T17:35:03.522Z,30.24
2023-05-22T17:37:30.099Z,31.10
2023-05-22T17:39:56.768Z,30.26
2023-05-22T17:42:23.395Z,31.87
2023-05-22T17:44:50.055Z,31.50
2023-05-22T17:47:16.783Z,32.83
2023-05-22T17:49:43.436Z,31.71
2023-05-22T17:52:11.507Z,31.56
2023-05-22T17:54:38.059Z,32.26
2023-05-22T17:57:04.804Z,32.52
2023-05-22T17:59:32.645Z,32.10
2023-05-22T18:01:59.518Z,31.58
2023-05-22T18:04:26.270Z,32.84
2023-05-22T18:06:53.105Z,32.40
2023-05-22T18:09:21.246Z,32.60
2023-05-22T18:11:47.911Z,33.59
2023-05-22T18:14:14.673Z,32.32
2023-05-22T18:16:41.281Z,32.51
2023-05-22T18:19:07.924Z,33.42
2023-05-22T18:21:34.770Z,32.69
2023-05-22T18:24:01.431Z,33.39
2023-05-22T18:26:29.519Z,34.18
2023-05-22T18:28:56.151Z,33.22
2023-05-22T18:31:22.741Z,33.05
2023-05-22T18:33:49.309Z,33.75
2023-05-22T18:36:15.915Z,33.97
2023-05-22T18:38:42.621Z,33.37
2023-05-22T18:41:09.252Z,33.93
2023-05-22T18:43:37.207Z,34.57
2023-05-22T18:46:04.297Z,35.10
2023-05-22T18:48:30.908Z,34.29
2023-05-22T18:50:57.961Z,34.41
2023-05-22T18:53:24.850Z,34.58
2023-05-22T18:55:51.448Z,35.55
2023-05-22T18:58:18.047Z,35.44
2023-05-22T19:00:46.046Z,36.44
2023-05-22T19:03:12.691Z,36.62
2023-05-22T19:05:39.617Z,36.15
2023-05-22T19:08:06.320Z,36.18
2023-05-22T19:10:33.227Z,37.09
2023-05-22T19:12:59.965Z,36.52
2023-05-22T19:15:26.717Z,37.57
2023-05-22T19:17:54.898Z,36.62
2023-05-22T19:20:22.585Z,36.85
2023-05-22T19:22:49.162Z,37.50
2023-05-22T19:25:15.724Z,38.39
2023-05-22T19:27:42.350Z,38.31
2023-05-22T19:30:09.615Z,39.10
2023-05-22T19:32:36.250Z,38.61
2023-05-22T19:35:04.711Z,38.43
2023-05-22T19:37:31.342Z,38.24
2023-05-22T19:39:57.957Z,38.70
2023-05-22T19:42:24.541Z,39.82
2023-05-22T19:44:51.131Z,40.75
2023-05-22T19:47:17.749Z,40.24
2023-05-22T19:49:44.350Z,40.43
2023-05-22T19:52:12.298Z,41.21
2023-05-22T19:54:38.861Z,41.66
2023-05-22T19:57:05.929Z,40.40
2023-05-22T19:59:34.122Z,40.54
2023-05-22T20:02:02.575Z,40.86
2023-05-22T20:04:29.202Z,41.81
2023-05-22T20:06:55.778Z,40.71
2023-05-22T20:09:23.794Z,42.24
2023-05-22T20:11:50.351Z,42.22
2023-05-22T20:14:17.014Z,41.77
2023-05-22T20:16:43.732Z,42.61
2023-05-22T20:19:10.577Z,42.75
2023-05-22T20:21:37.361Z,42.25
2023-05-22T20:24:04.281Z,42.35
2023-05-22T20:26:32.258Z,42.59
2023-05-22T20:28:58.889Z,42.79
2023-05-22T20:31:25.475Z,43.55
2023-05-22T20:33:52.101Z,42.92
2023-05-22T20:36:18.721Z,43.63
2023-05-22T20:38:45.339Z,43.12
2023-05-22T20:41:11.959Z,44.06
2023-05-22T20:43:39.911Z,43.79
2023-05-22T20:46:06.465Z,44.05
2023-05-22T20:48:33.159Z,44.54
2023-05-22T20:50:59.706Z,44.84
2023-05-22T20:53:26.264Z,45.32
2023-05-22T20:55:52.896Z,45.39
2023-05-22T20:58:19.675Z,45.95
2023-05-22T21:00:47.732Z,46.04
2023-05-22T21:03:14.494Z,46.35
2023-05-22T21:05:41.408Z,46.77
2023-05-22T21:08:08.162Z,47.08
2023-05-22T21:10:34.715Z,47.34
2023-05-22T21:13:01.401Z,47.24
2023-05-22T21:15:28.011Z,47.41
2023-05-22T21:17:56.093Z,47.37
2023-05-22T21:20:22.770Z,48.19
2023-05-22T21:22:49.342Z,48.04
2023-05-22T21:25:16.025Z,48.24
2023-05-22T21:27:42.734Z,47.86
2023-05-22T21:30:11.932Z,48.15
2023-05-22T21:32:38.813Z,48.11
2023-05-22T21:35:08.102Z,48.61
2023-05-22T21:37:35.072Z,48.99
2023-05-22T21:40:01.772Z,49.16
2023-05-22T21:42:34.738Z,48.66
2023-05-22T21:45:12.686Z,48.57
2023-05-22T21:47:39.429Z,48.87
2023-05-22T21:50:08.261Z,48.87
2023-05-22T21:52:35.054Z,48.26
2023-05-22T21:55:01.679Z,48.74
2023-05-22T21:57:28.305Z,48.23
2023-05-22T21:59:55.119Z,47.51
2023-05-22T22:02:21.752Z,46.92
2023-05-22T22:04:48.391Z,46.71
2023-05-22T22:07:16.577Z,47.31
2023-05-22T22:09:43.202Z,47.65
2023-05-22T22:12:09.964Z,47.32
2023-05-22T22:14:36.548Z,47.67
2023-05-22T22:17:03.348Z,47.52
2023-05-22T22:19:30.023Z,47.45
2023-05-22T22:21:56.823Z,47.65
2023-05-22T22:24:24.755Z,48.03
2023-05-22T22:26:51.387Z,48.06
2023-05-22T22:29:17.960Z,48.52
2023-05-22T22:31:44.948Z,47.61
2023-05-22T22:34:11.538Z,47.91
2023-05-22T22:36:38.160Z,46.94
2023-05-22T22:39:05.023Z,47.23
2023-05-22T22:41:33.014Z,46.16
2023-05-22T22:43:59.601Z,46.10
2023-05-22T22:46:26.286Z,46.48
2023-05-22T22:48:52.887Z,46.75
2023-05-22T22:51:19.542Z,46.58
2023-05-22T22:53:46.119Z,46.35
2023-05-22T22:56:12.829Z,46.08
2023-05-22T22:58:40.797Z,45.89
2023-05-22T23:01:07.418Z,45.89
2023-05-22T23:03:34.048Z,45.76
2023-05-22T23:06:00.698Z,45.92
2023-05-22T23:08:27.388Z,46.12
2023-05-22T23:10:53.944Z,45.83
2023-05-22T23:13:20.638Z,46.08
2023-05-22T23:15:48.646Z,45.92
2023-05-22T23:18:15.347Z,46.39
2023-05-22T23:20:41.963Z,46.33
2023-05-22T23:23:08.698Z,45.98
2023-05-22T23:25:35.380Z,45.64
2023-05-22T23:28:02.008Z,46.11
2023-05-22T23:30:28.740Z,46.12
2023-05-22T23:32:56.701Z,46.28
2023-05-22T23:35:23.379Z,46.18
2023-05-22T23:37:50.008Z,46.37
2023-05-22T23:40:16.735Z,46.66
2023-05-22T23:42:43.255Z,46.64
2023-05-22T23:45:10.217Z,47.28
2023-05-22T23:47:37.062Z,47.68
2023-05-22T23:50:06.198Z,47.82
2023-05-22T23:52:32.828Z,47.64
2023-05-22T23:54:59.396Z,47.82
2023-05-22T23:57:25.944Z,48.22
2023-05-22T23:59:52.488Z,48.20
